ROMMA est une association bénévole à but non lucratif. Votre soutien est indispensable : ADHERER à ROMMA ou FAIRE un DON

Voiron - (38, Isère)

Voironnais (300 m)   Longitude: 05° 35' E   Latitude: 45° 23' N Station partenaire n°109
 

Détail journalier du     <<     >>

Température Precipitation Humidité Pression Vent Dir Rafale Dir. rafale Ensol.
Heure (°C) (mm) (%) (hPa) (km/h) (km/h) (min)
01:00 18.406110112SSO6O0
02:00 17.9063101105O0
03:00 17.706510111O5O0
04:00 16.806810112O5O0
05:00 15.807110101OSO5O0
06:00 15.2073101003OSO0
07:00 15.8070101005OSO0
08:00 18.506110101OSO5OSO60
09:00 19.3051100905OSO0
10:00 21.404410095SSO13SSO60
11:00 21.404810086S16SSO60
12:00 23.104910086SE15SSE60
13:00 25.104510064OSO11NO60
14:00 26.704110053SE11SSO30
15:00 27.704010047SSO16SSO60
16:00 28.603810043SSO13SSO30
17:00 29.403610033SSO13ONO0
18:00 30.703410036N21N60
19:00 27.903610048SSO26OSO60
20:00 25.704010056SSO21SO60
21:00 22.904910079SSO32SO30
22:00 21.505910107SO26ONO0
23:00 17.6059101119N52N0
minuit 16.4062101316N34NNE0

Graphique du 05-06-2019

 

Serveur OMMA